KFLO/FLO METAR and TAF weather

Enter ICAO airport designator
Station Type Date Time Source
KFLO METAR 2023/02/04 01:53 UTC NOAA

KFLO 040153Z 01007KT 10SM CLR 06/M04 A3036 RMK AO2 SLP280 T00561039


Station Type Date Time Source
KFLO Decoded METAR 2023/02/04 01:53 UTC NOAA

FLORENCE REGIONAL AIRPORT, SC, United States (KFLO) 34-11N 079-44W 44M
Feb 03, 2023 - 08:53 PM EST / 2023.02.04 0153 UTC
Wind: from the N (010 degrees) at 8 MPH (7 KT):0
Visibility: 10 mile(s):0
Sky conditions: clear
Temperature: 42.1 F (5.6 C)
Dew Point: 25.0 F (-3.9 C)
Relative Humidity: 50%
Pressure (altimeter): 30.36 in. Hg (1028 hPa)
ob: KFLO 040153Z 01007KT 10SM CLR 06/M04 A3036 RMK AO2 SLP280 T00561039
cycle: 2

Station Type Date Time Source
KFLO TAF 2023/02/03 18:22 UTC NOAA

TAF KFLO 031720Z 0318/0418 34012KT P6SM SKC
FM040000 36008KT P6SM SKC
FM041400 06007KT P6SM SKC

Example: see airport list